sensor_id;sensor_type;location;lat;lon;timestamp;pressure;altitude;pressure_sealevel;temperature;humidity
14232;BME280;7200;52.194;9.900;2023-01-31T00:01:28;100410.88;;;3.96;100.00
14232;BME280;7200;52.194;9.900;2023-01-31T00:03:56;100420.50;;;3.87;100.00
14232;BME280;7200;52.194;9.900;2023-01-31T00:06:27;100416.19;;;3.80;100.00
14232;BME280;7200;52.194;9.900;2023-01-31T00:08:53;100445.75;;;3.87;100.00
14232;BME280;7200;52.194;9.900;2023-01-31T00:11:21;100453.56;;;3.85;100.00
14232;BME280;7200;52.194;9.900;2023-01-31T00:13:47;100455.34;;;3.83;100.00
14232;BME280;7200;52.194;9.900;2023-01-31T00:16:14;100490.91;;;3.95;100.00
14232;BME280;7200;52.194;9.900;2023-01-31T00:18:40;100484.88;;;3.90;100.00
14232;BME280;7200;52.194;9.900;2023-01-31T00:23:31;100489.19;;;3.93;100.00
14232;BME280;7200;52.194;9.900;2023-01-31T00:26:16;100501.34;;;3.97;100.00
14232;BME280;7200;52.194;9.900;2023-01-31T00:28:42;100502.16;;;4.03;100.00
14232;BME280;7200;52.194;9.900;2023-01-31T00:31:09;100517.78;;;4.06;100.00
14232;BME280;7200;52.194;9.900;2023-01-31T00:33:36;100518.69;;;4.04;100.00
14232;BME280;7200;52.194;9.900;2023-01-31T00:36:03;100509.94;;;4.09;100.00
14232;BME280;7200;52.194;9.900;2023-01-31T00:38:29;100498.63;;;4.09;100.00
14232;BME280;7200;52.194;9.900;2023-01-31T00:40:54;100519.47;;;4.15;100.00
14232;BME280;7200;52.194;9.900;2023-01-31T00:43:20;100524.75;;;4.04;100.00
14232;BME280;7200;52.194;9.900;2023-01-31T00:45:45;100520.31;;;4.16;100.00
14232;BME280;7200;52.194;9.900;2023-01-31T00:48:10;100521.97;;;4.26;100.00
14232;BME280;7200;52.194;9.900;2023-01-31T00:50:36;100534.22;;;4.19;100.00
14232;BME280;7200;52.194;9.900;2023-01-31T00:53:01;100515.16;;;4.11;100.00
14232;BME280;7200;52.194;9.900;2023-01-31T00:55:27;100502.19;;;4.00;100.00
14232;BME280;7200;52.194;9.900;2023-01-31T00:57:52;100519.66;;;3.90;100.00
14232;BME280;7200;52.194;9.900;2023-01-31T01:00:18;100535.31;;;3.90;100.00
14232;BME280;7200;52.194;9.900;2023-01-31T01:02:43;100561.38;;;3.97;100.00
14232;BME280;7200;52.194;9.900;2023-01-31T01:05:08;100571.81;;;4.00;100.00
14232;BME280;7200;52.194;9.900;2023-01-31T01:07:34;100571.81;;;3.97;100.00
14232;BME280;7200;52.194;9.900;2023-01-31T01:09:59;100576.13;;;4.04;100.00
14232;BME280;7200;52.194;9.900;2023-01-31T01:12:24;100596.94;;;4.12;100.00
14232;BME280;7200;52.194;9.900;2023-01-31T01:14:50;100605.63;;;4.12;100.00
14232;BME280;7200;52.194;9.900;2023-01-31T01:17:15;100597.00;;;4.07;100.00
14232;BME280;7200;52.194;9.900;2023-01-31T01:19:40;100603.09;;;4.04;100.00
14232;BME280;7200;52.194;9.900;2023-01-31T01:22:05;100610.97;;;3.97;100.00
14232;BME280;7200;52.194;9.900;2023-01-31T01:24:31;100617.94;;;3.93;100.00
14232;BME280;7200;52.194;9.900;2023-01-31T01:26:56;100636.22;;;3.93;100.00
14232;BME280;7200;52.194;9.900;2023-01-31T01:29:21;100647.53;;;3.95;100.00
14232;BME280;7200;52.194;9.900;2023-01-31T01:31:46;100672.72;;;4.04;100.00
14232;BME280;7200;52.194;9.900;2023-01-31T01:34:14;100675.31;;;4.02;100.00
14232;BME280;7200;52.194;9.900;2023-01-31T01:36:39;100669.28;;;3.96;100.00
14232;BME280;7200;52.194;9.900;2023-01-31T01:39:07;100674.44;;;4.05;100.00
14232;BME280;7200;52.194;9.900;2023-01-31T01:41:36;100680.56;;;3.99;100.00
14232;BME280;7200;52.194;9.900;2023-01-31T01:44:04;100670.06;;;4.12;100.00
14232;BME280;7200;52.194;9.900;2023-01-31T01:46:48;100661.38;;;4.05;100.00
14232;BME280;7200;52.194;9.900;2023-01-31T01:49:25;100666.63;;;4.00;100.00
14232;BME280;7200;52.194;9.900;2023-01-31T01:51:54;100663.13;;;4.03;100.00
14232;BME280;7200;52.194;9.900;2023-01-31T01:54:25;100663.16;;;4.00;100.00
14232;BME280;7200;52.194;9.900;2023-01-31T01:56:56;100666.59;;;4.09;100.00
14232;BME280;7200;52.194;9.900;2023-01-31T01:59:48;100655.25;;;4.15;100.00
14232;BME280;7200;52.194;9.900;2023-01-31T02:02:12;100645.72;;;4.06;100.00
14232;BME280;7200;52.194;9.900;2023-01-31T02:04:39;100659.56;;;4.16;100.00
14232;BME280;7200;52.194;9.900;2023-01-31T02:07:06;100658.72;;;4.14;100.00
14232;BME280;7200;52.194;9.900;2023-01-31T02:12:11;100670.00;;;4.22;100.00
14232;BME280;7200;52.194;9.900;2023-01-31T02:14:38;100671.72;;;4.22;100.00
14232;BME280;7200;52.194;9.900;2023-01-31T02:17:03;100663.00;;;4.24;100.00
14232;BME280;7200;52.194;9.900;2023-01-31T02:19:39;100653.47;;;4.19;100.00
14232;BME280;7200;52.194;9.900;2023-01-31T02:27:53;100657.84;;;4.12;100.00
14232;BME280;7200;52.194;9.900;2023-01-31T02:31:03;100657.84;;;4.18;100.00
14232;BME280;7200;52.194;9.900;2023-01-31T02:33:42;100641.34;;;4.10;100.00
14232;BME280;7200;52.194;9.900;2023-01-31T02:39:28;100642.19;;;4.15;100.00
14232;BME280;7200;52.194;9.900;2023-01-31T02:42:18;100640.47;;;4.08;100.00
14232;BME280;7200;52.194;9.900;2023-01-31T02:44:53;100653.53;;;4.05;100.00
14232;BME280;7200;52.194;9.900;2023-01-31T02:50:31;100683.16;;;4.01;100.00
14232;BME280;7200;52.194;9.900;2023-01-31T02:55:35;100709.34;;;3.87;100.00
14232;BME280;7200;52.194;9.900;2023-01-31T02:58:21;100711.13;;;3.74;100.00
14232;BME280;7200;52.194;9.900;2023-01-31T03:00:49;100715.53;;;3.66;100.00
14232;BME280;7200;52.194;9.900;2023-01-31T03:03:26;100740.72;;;3.70;100.00
14232;BME280;7200;52.194;9.900;2023-01-31T03:06:38;100745.09;;;3.69;100.00
14232;BME280;7200;52.194;9.900;2023-01-31T03:09:19;100748.53;;;3.75;100.00
14232;BME280;7200;52.194;9.900;2023-01-31T03:15:18;100758.94;;;3.87;100.00
14232;BME280;7200;52.194;9.900;2023-01-31T03:17:23;100753.69;;;3.92;100.00
14232;BME280;7200;52.194;9.900;2023-01-31T03:20:03;100756.28;;;3.96;100.00
14232;BME280;7200;52.194;9.900;2023-01-31T03:22:34;100741.53;;;3.90;100.00
14232;BME280;7200;52.194;9.900;2023-01-31T03:25:01;100732.84;;;3.88;100.00
14232;BME280;7200;52.194;9.900;2023-01-31T03:27:29;100732.81;;;3.93;100.00
14232;BME280;7200;52.194;9.900;2023-01-31T03:30:00;100731.91;;;4.02;100.00
14232;BME280;7200;52.194;9.900;2023-01-31T03:32:30;100734.50;;;4.02;100.00
14232;BME280;7200;52.194;9.900;2023-01-31T03:34:57;100723.19;;;4.06;100.00
14232;BME280;7200;52.194;9.900;2023-01-31T03:37:39;100722.31;;;4.07;100.00
14232;BME280;7200;52.194;9.900;2023-01-31T03:40:19;100710.97;;;4.08;100.00
14232;BME280;7200;52.194;9.900;2023-01-31T03:45:53;100704.91;;;4.07;100.00
14232;BME280;7200;52.194;9.900;2023-01-31T03:48:21;100693.56;;;4.08;100.00
14232;BME280;7200;52.194;9.900;2023-01-31T03:50:51;100688.34;;;4.12;100.00
14232;BME280;7200;52.194;9.900;2023-01-31T03:53:40;100678.75;;;4.12;100.00
14232;BME280;7200;52.194;9.900;2023-01-31T03:56:16;100674.41;;;4.13;100.00
14232;BME280;7200;52.194;9.900;2023-01-31T03:58:47;100662.22;;;4.10;100.00
14232;BME280;7200;52.194;9.900;2023-01-31T04:01:16;100663.97;;;4.08;100.00
14232;BME280;7200;52.194;9.900;2023-01-31T04:03:46;100662.28;;;4.05;100.00
14232;BME280;7200;52.194;9.900;2023-01-31T04:06:13;100635.38;;;3.93;100.00
14232;BME280;7200;52.194;9.900;2023-01-31T04:08:38;100631.91;;;3.89;100.00
14232;BME280;7200;52.194;9.900;2023-01-31T04:11:07;100627.59;;;3.82;100.00
14232;BME280;7200;52.194;9.900;2023-01-31T04:13:33;100633.72;;;3.75;100.00
14232;BME280;7200;52.194;9.900;2023-01-31T04:15:58;100638.97;;;3.72;100.00
14232;BME280;7200;52.194;9.900;2023-01-31T04:18:23;100625.97;;;3.64;100.00
14232;BME280;7200;52.194;9.900;2023-01-31T04:20:49;100629.44;;;3.64;100.00
14232;BME280;7200;52.194;9.900;2023-01-31T04:23:14;100626.81;;;3.61;100.00
14232;BME280;7200;52.194;9.900;2023-01-31T04:25:39;100619.94;;;3.51;100.00
14232;BME280;7200;52.194;9.900;2023-01-31T04:28:04;100632.09;;;3.50;100.00
14232;BME280;7200;52.194;9.900;2023-01-31T04:30:30;100641.66;;;3.56;100.00
14232;BME280;7200;52.194;9.900;2023-01-31T04:32:56;100647.75;;;3.50;100.00
14232;BME280;7200;52.194;9.900;2023-01-31T04:35:21;100654.69;;;3.50;100.00
14232;BME280;7200;52.194;9.900;2023-01-31T04:37:46;100667.72;;;3.56;100.00
14232;BME280;7200;52.194;9.900;2023-01-31T04:40:12;100670.34;;;3.55;100.00
14232;BME280;7200;52.194;9.900;2023-01-31T04:42:38;100680.75;;;3.58;100.00
14232;BME280;7200;52.194;9.900;2023-01-31T04:45:04;100669.44;;;3.57;100.00
14232;BME280;7200;52.194;9.900;2023-01-31T04:47:29;100674.66;;;3.57;100.00
14232;BME280;7200;52.194;9.900;2023-01-31T04:49:55;100689.44;;;3.64;100.00
14232;BME280;7200;52.194;9.900;2023-01-31T04:52:20;100683.31;;;3.65;100.00
14232;BME280;7200;52.194;9.900;2023-01-31T04:54:45;100685.94;;;3.68;100.00
14232;BME280;7200;52.194;9.900;2023-01-31T04:57:11;100676.34;;;3.70;100.00
14232;BME280;7200;52.194;9.900;2023-01-31T04:59:36;100673.75;;;3.69;100.00
14232;BME280;7200;52.194;9.900;2023-01-31T05:02:01;100652.91;;;3.66;100.00
14232;BME280;7200;52.194;9.900;2023-01-31T05:04:26;100654.66;;;3.62;100.00
14232;BME280;7200;52.194;9.900;2023-01-31T05:06:52;100654.63;;;3.65;100.00
14232;BME280;7200;52.194;9.900;2023-01-31T05:09:18;100645.97;;;3.57;100.00
14232;BME280;7200;52.194;9.900;2023-01-31T05:11:43;100643.41;;;3.51;100.00
14232;BME280;7200;52.194;9.900;2023-01-31T05:14:09;100638.19;;;3.48;100.00
14232;BME280;7200;52.194;9.900;2023-01-31T05:16:34;100651.22;;;3.53;100.00
14232;BME280;7200;52.194;9.900;2023-01-31T05:18:59;100659.06;;;3.53;100.00
14232;BME280;7200;52.194;9.900;2023-01-31T05:21:25;100651.19;;;3.54;100.00
14232;BME280;7200;52.194;9.900;2023-01-31T05:23:50;100652.94;;;3.57;100.00
14232;BME280;7200;52.194;9.900;2023-01-31T05:26:15;100652.91;;;3.60;100.00
14232;BME280;7200;52.194;9.900;2023-01-31T05:28:40;100662.44;;;3.65;100.00
14232;BME280;7200;52.194;9.900;2023-01-31T05:31:07;100655.50;;;3.60;100.00
14232;BME280;7200;52.194;9.900;2023-01-31T05:33:33;100646.00;;;3.53;100.00
14232;BME280;7200;52.194;9.900;2023-01-31T05:35:59;100663.34;;;3.60;100.00
14232;BME280;7200;52.194;9.900;2023-01-31T05:38:24;100653.81;;;3.56;100.00
14232;BME280;7200;52.194;9.900;2023-01-31T05:40:50;100652.09;;;3.53;100.00
14232;BME280;7200;52.194;9.900;2023-01-31T05:43:15;100648.59;;;3.56;100.00
14232;BME280;7200;52.194;9.900;2023-01-31T05:45:41;100647.72;;;3.52;100.00
14232;BME280;7200;52.194;9.900;2023-01-31T05:48:06;100646.88;;;3.51;100.00
14232;BME280;7200;52.194;9.900;2023-01-31T05:50:31;100647.72;;;3.54;100.00
14232;BME280;7200;52.194;9.900;2023-01-31T05:52:58;100652.13;;;3.47;100.00
14232;BME280;7200;52.194;9.900;2023-01-31T05:55:25;100660.78;;;3.57;100.00
14232;BME280;7200;52.194;9.900;2023-01-31T05:57:51;100651.19;;;3.54;100.00
14232;BME280;7200;52.194;9.900;2023-01-31T06:00:17;100660.72;;;3.60;100.00
14232;BME280;7200;52.194;9.900;2023-01-31T06:02:42;100660.78;;;3.58;100.00
14232;BME280;7200;52.194;9.900;2023-01-31T06:05:08;100665.94;;;3.63;100.00
14232;BME280;7200;52.194;9.900;2023-01-31T06:07:34;100665.09;;;3.59;100.00
14232;BME280;7200;52.194;9.900;2023-01-31T06:09:59;100665.09;;;3.64;100.00
14232;BME280;7200;52.194;9.900;2023-01-31T06:12:25;100642.50;;;3.58;100.00
14232;BME280;7200;52.194;9.900;2023-01-31T06:14:50;100658.13;;;3.63;100.00
14232;BME280;7200;52.194;9.900;2023-01-31T06:17:15;100651.19;;;3.59;100.00
14232;BME280;7200;52.194;9.900;2023-01-31T06:19:41;100656.41;;;3.60;100.00
14232;BME280;7200;52.194;9.900;2023-01-31T06:22:06;100680.72;;;3.65;100.00
14232;BME280;7200;52.194;9.900;2023-01-31T06:24:31;100666.84;;;3.57;100.00
14232;BME280;7200;52.194;9.900;2023-01-31T06:26:57;100679.00;;;3.67;100.00
14232;BME280;7200;52.194;9.900;2023-01-31T06:29:22;100673.75;;;3.75;100.00
14232;BME280;7200;52.194;9.900;2023-01-31T06:31:47;100664.19;;;3.66;100.00
14232;BME280;7200;52.194;9.900;2023-01-31T06:34:13;100665.06;;;3.68;100.00
14232;BME280;7200;52.194;9.900;2023-01-31T06:36:38;100669.38;;;3.71;100.00
14232;BME280;7200;52.194;9.900;2023-01-31T06:39:04;100673.75;;;3.74;100.00
14232;BME280;7200;52.194;9.900;2023-01-31T06:41:29;100667.63;;;3.76;100.00
14232;BME280;7200;52.194;9.900;2023-01-31T06:43:55;100666.72;;;3.80;100.00
14232;BME280;7200;52.194;9.900;2023-01-31T06:46:21;100665.03;;;3.76;100.00
14232;BME280;7200;52.194;9.900;2023-01-31T06:48:46;100666.78;;;3.77;100.00
14232;BME280;7200;52.194;9.900;2023-01-31T06:51:15;100658.03;;;3.81;100.00
14232;BME280;7200;52.194;9.900;2023-01-31T06:53:41;100650.16;;;3.89;100.00
14232;BME280;7200;52.194;9.900;2023-01-31T06:56:06;100629.34;;;3.84;100.00
14232;BME280;7200;52.194;9.900;2023-01-31T06:58:32;100628.44;;;3.85;100.00
14232;BME280;7200;52.194;9.900;2023-01-31T07:01:06;100634.47;;;3.94;100.00
14232;BME280;7200;52.194;9.900;2023-01-31T07:03:31;100626.63;;;3.94;100.00
14232;BME280;7200;52.194;9.900;2023-01-31T07:05:57;100630.09;;;3.99;100.00
14232;BME280;7200;52.194;9.900;2023-01-31T07:08:22;100640.50;;;4.06;100.00
14232;BME280;7200;52.194;9.900;2023-01-31T07:10:47;100624.81;;;4.06;100.00
14232;BME280;7200;52.194;9.900;2023-01-31T07:13:13;100619.66;;;4.02;100.00
14232;BME280;7200;52.194;9.900;2023-01-31T07:15:38;100617.81;;;4.15;100.00
14232;BME280;7200;52.194;9.900;2023-01-31T07:18:04;100608.31;;;4.06;100.00
14232;BME280;7200;52.194;9.900;2023-01-31T07:20:30;100618.69;;;4.15;100.00
14232;BME280;7200;52.194;9.900;2023-01-31T07:22:57;100619.50;;;4.22;100.00
14232;BME280;7200;52.194;9.900;2023-01-31T07:25:23;100620.38;;;4.22;100.00
14232;BME280;7200;52.194;9.900;2023-01-31T07:27:48;100603.84;;;4.20;100.00
14232;BME280;7200;52.194;9.900;2023-01-31T07:30:14;100596.88;;;4.24;100.00
14232;BME280;7200;52.194;9.900;2023-01-31T07:32:39;100597.66;;;4.32;100.00
14232;BME280;7200;52.194;9.900;2023-01-31T07:35:04;100583.78;;;4.25;100.00
14232;BME280;7200;52.194;9.900;2023-01-31T07:37:30;100587.22;;;4.29;100.00
14232;BME280;7200;52.194;9.900;2023-01-31T07:39:55;100581.13;;;4.32;100.00
14232;BME280;7200;52.194;9.900;2023-01-31T07:42:20;100586.28;;;4.39;100.00
14232;BME280;7200;52.194;9.900;2023-01-31T07:44:46;100575.00;;;4.33;100.00
14232;BME280;7200;52.194;9.900;2023-01-31T07:47:11;100574.09;;;4.38;100.00
14232;BME280;7200;52.194;9.900;2023-01-31T07:49:36;100570.63;;;4.39;100.00
14232;BME280;7200;52.194;9.900;2023-01-31T07:52:02;100569.72;;;4.42;100.00
14232;BME280;7200;52.194;9.900;2023-01-31T07:54:27;100567.03;;;4.48;100.00
14232;BME280;7200;52.194;9.900;2023-01-31T07:56:52;100563.47;;;4.60;100.00
14232;BME280;7200;52.194;9.900;2023-01-31T07:59:17;100558.19;;;4.63;100.00
14232;BME280;7200;52.194;9.900;2023-01-31T08:01:43;100555.59;;;4.61;100.00
14232;BME280;7200;52.194;9.900;2023-01-31T08:04:27;100547.72;;;4.66;100.00
14232;BME280;7200;52.194;9.900;2023-01-31T08:06:53;100556.31;;;4.77;100.00
14232;BME280;7200;52.194;9.900;2023-01-31T08:09:20;100547.63;;;4.75;100.00
14232;BME280;7200;52.194;9.900;2023-01-31T08:11:45;100550.13;;;4.84;100.00
14232;BME280;7200;52.194;9.900;2023-01-31T08:14:10;100546.69;;;4.81;100.00
14232;BME280;7200;52.194;9.900;2023-01-31T08:16:36;100534.47;;;4.83;100.00
14232;BME280;7200;52.194;9.900;2023-01-31T08:19:02;100529.22;;;4.84;100.00
14232;BME280;7200;52.194;9.900;2023-01-31T08:21:27;100514.41;;;4.82;100.00
14232;BME280;7200;52.194;9.900;2023-01-31T08:23:52;100521.28;;;4.94;100.00
14232;BME280;7200;52.194;9.900;2023-01-31T08:26:20;100516.09;;;4.87;100.00
14232;BME280;7200;52.194;9.900;2023-01-31T08:28:48;100507.16;;;5.07;100.00
14232;BME280;7200;52.194;9.900;2023-01-31T08:31:20;100483.56;;;5.12;100.00
14232;BME280;7200;52.194;9.900;2023-01-31T08:33:46;100466.06;;;5.15;100.00
14232;BME280;7200;52.194;9.900;2023-01-31T08:36:19;100461.66;;;5.19;100.00
14232;BME280;7200;52.194;9.900;2023-01-31T08:38:46;100446.00;;;5.17;100.00
14232;BME280;7200;52.194;9.900;2023-01-31T08:41:12;100432.03;;;5.18;100.00
14232;BME280;7200;52.194;9.900;2023-01-31T08:43:37;100434.66;;;5.18;100.00
14232;BME280;7200;52.194;9.900;2023-01-31T08:46:04;100418.13;;;5.16;100.00
14232;BME280;7200;52.194;9.900;2023-01-31T08:48:35;100428.38;;;5.32;100.00
14232;BME280;7200;52.194;9.900;2023-01-31T08:51:06;100395.25;;;5.29;100.00
14232;BME280;7200;52.194;9.900;2023-01-31T08:53:32;100400.56;;;5.24;100.00
14232;BME280;7200;52.194;9.900;2023-01-31T08:56:02;100406.50;;;5.34;100.00
14232;BME280;7200;52.194;9.900;2023-01-31T08:58:34;100397.84;;;5.29;100.00
14232;BME280;7200;52.194;9.900;2023-01-31T09:01:09;100398.69;;;5.31;100.00
14232;BME280;7200;52.194;9.900;2023-01-31T09:03:35;100385.59;;;5.33;100.00
14232;BME280;7200;52.194;9.900;2023-01-31T09:06:02;100410.06;;;5.32;100.00
14232;BME280;7200;52.194;9.900;2023-01-31T09:08:29;100389.97;;;5.34;100.00
14232;BME280;7200;52.194;9.900;2023-01-31T09:10:55;100369.06;;;5.31;100.00
14232;BME280;7200;52.194;9.900;2023-01-31T09:13:21;100383.78;;;5.38;100.00
14232;BME280;7200;52.194;9.900;2023-01-31T09:15:56;100359.44;;;5.34;100.00
14232;BME280;7200;52.194;9.900;2023-01-31T09:18:22;100377.59;;;5.43;100.00
14232;BME280;7200;52.194;9.900;2023-01-31T09:20:47;100369.75;;;5.42;100.00
14232;BME280;7200;52.194;9.900;2023-01-31T09:23:12;100354.13;;;5.39;100.00
14232;BME280;7200;52.194;9.900;2023-01-31T09:25:38;100341.06;;;5.39;100.00
14232;BME280;7200;52.194;9.900;2023-01-31T09:28:03;100350.56;;;5.43;100.00
14232;BME280;7200;52.194;9.900;2023-01-31T09:30:28;100355.69;;;5.49;100.00
14232;BME280;7200;52.194;9.900;2023-01-31T09:32:53;100354.84;;;5.47;100.00
14232;BME280;7200;52.194;9.900;2023-01-31T09:35:19;100353.94;;;5.48;100.00
14232;BME280;7200;52.194;9.900;2023-01-31T09:37:45;100336.53;;;5.47;100.00
14232;BME280;7200;52.194;9.900;2023-01-31T09:40:16;100313.97;;;5.41;100.00
14232;BME280;7200;52.194;9.900;2023-01-31T09:42:45;100331.34;;;5.44;100.00
14232;BME280;7200;52.194;9.900;2023-01-31T09:45:31;100340.97;;;5.43;100.00
14232;BME280;7200;52.194;9.900;2023-01-31T09:47:59;100347.28;;;5.30;100.00
14232;BME280;7200;52.194;9.900;2023-01-31T09:50:41;100350.03;;;5.21;100.00
14232;BME280;7200;52.194;9.900;2023-01-31T09:53:11;100375.41;;;5.16;100.00
14232;BME280;7200;52.194;9.900;2023-01-31T09:58:21;100394.28;;;4.76;100.00
14232;BME280;7200;52.194;9.900;2023-01-31T10:01:30;100399.63;;;4.65;100.00
14232;BME280;7200;52.194;9.900;2023-01-31T10:12:24;100442.63;;;4.39;100.00
14232;BME280;7200;52.194;9.900;2023-01-31T10:14:56;100447.78;;;4.42;100.00
14232;BME280;7200;52.194;9.900;2023-01-31T10:17:25;100451.31;;;4.40;100.00
14232;BME280;7200;52.194;9.900;2023-01-31T10:20:00;100447.03;;;4.34;100.00
14232;BME280;7200;52.194;9.900;2023-01-31T10:22:33;100464.47;;;4.31;100.00
14232;BME280;7200;52.194;9.900;2023-01-31T10:25:27;100468.78;;;4.33;100.00
14232;BME280;7200;52.194;9.900;2023-01-31T10:28:00;100577.44;;;4.54;100.00
14232;BME280;7200;52.194;9.900;2023-01-31T10:30:42;100546.19;;;4.46;100.00
14232;BME280;7200;52.194;9.900;2023-01-31T10:33:30;100553.91;;;4.56;100.00
14232;BME280;7200;52.194;9.900;2023-01-31T10:36:02;100537.34;;;4.60;100.00
14232;BME280;7200;52.194;9.900;2023-01-31T10:38:33;100536.50;;;4.53;100.00
14232;BME280;7200;52.194;9.900;2023-01-31T10:41:17;100529.44;;;4.63;100.00
14232;BME280;7200;52.194;9.900;2023-01-31T10:44:35;100519.91;;;4.60;100.00
14232;BME280;7200;52.194;9.900;2023-01-31T10:46:40;100518.09;;;4.65;100.00
14232;BME280;7200;52.194;9.900;2023-01-31T10:49:07;100515.50;;;4.65;100.00
14232;BME280;7200;52.194;9.900;2023-01-31T10:51:52;100509.34;;;4.68;100.00
14232;BME280;7200;52.194;9.900;2023-01-31T10:54:38;100487.50;;;4.75;100.00
14232;BME280;7200;52.194;9.900;2023-01-31T10:57:06;100488.34;;;4.79;100.00
14232;BME280;7200;52.194;9.900;2023-01-31T10:59:42;100470.88;;;4.81;100.00
14232;BME280;7200;52.194;9.900;2023-01-31T11:02:18;100457.81;;;4.79;100.00
14232;BME280;7200;52.194;9.900;2023-01-31T11:04:43;100443.91;;;4.79;100.00
14232;BME280;7200;52.194;9.900;2023-01-31T11:07:09;100433.34;;;4.88;100.00
14232;BME280;7200;52.194;9.900;2023-01-31T11:09:46;100438.34;;;5.05;100.00
14232;BME280;7200;52.194;9.900;2023-01-31T11:12:12;100389.66;;;4.95;100.00
14232;BME280;7200;52.194;9.900;2023-01-31T11:14:37;100386.06;;;5.02;100.00
14232;BME280;7200;52.194;9.900;2023-01-31T11:17:21;100385.13;;;5.07;100.00
14232;BME280;7200;52.194;9.900;2023-01-31T11:19:50;100380.84;;;5.00;100.00
14232;BME280;7200;52.194;9.900;2023-01-31T11:22:25;100410.25;;;5.18;100.00
14232;BME280;7200;52.194;9.900;2023-01-31T11:25:00;100377.25;;;5.09;100.00
14232;BME280;7200;52.194;9.900;2023-01-31T11:27:39;100367.69;;;5.06;100.00
14232;BME280;7200;52.194;9.900;2023-01-31T11:30:19;100366.81;;;5.07;100.00
14232;BME280;7200;52.194;9.900;2023-01-31T11:32:45;100371.00;;;5.18;100.00
14232;BME280;7200;52.194;9.900;2023-01-31T11:37:48;100377.84;;;5.28;100.00
14232;BME280;7200;52.194;9.900;2023-01-31T11:45:45;100361.25;;;5.29;100.00
14232;BME280;7200;52.194;9.900;2023-01-31T11:50:39;100345.41;;;5.37;100.00
14232;BME280;7200;52.194;9.900;2023-01-31T11:53:26;100348.09;;;5.34;100.00
14232;BME280;7200;52.194;9.900;2023-01-31T11:55:55;100324.69;;;5.26;100.00
14232;BME280;7200;52.194;9.900;2023-01-31T11:58:30;100354.22;;;5.31;100.00
14232;BME280;7200;52.194;9.900;2023-01-31T12:01:19;100341.19;;;5.30;100.00
14232;BME280;7200;52.194;9.900;2023-01-31T12:03:50;100343.84;;;5.26;100.00
14232;BME280;7200;52.194;9.900;2023-01-31T12:08:55;100344.53;;;5.38;100.00
14232;BME280;7200;52.194;9.900;2023-01-31T12:11:30;100339.41;;;5.33;100.00
14232;BME280;7200;52.194;9.900;2023-01-31T12:16:30;100333.25;;;5.36;100.00
14232;BME280;7200;52.194;9.900;2023-01-31T12:19:36;100314.28;;;5.21;100.00
14232;BME280;7200;52.194;9.900;2023-01-31T12:25:02;100318.50;;;5.32;100.00
14232;BME280;7200;52.194;9.900;2023-01-31T12:30:32;100301.03;;;5.32;100.00
14232;BME280;7200;52.194;9.900;2023-01-31T12:33:14;100294.78;;;5.41;100.00
14232;BME280;7200;52.194;9.900;2023-01-31T12:38:46;100309.44;;;5.51;100.00
14232;BME280;7200;52.194;9.900;2023-01-31T12:52:35;100317.28;;;5.50;100.00
14232;BME280;7200;52.194;9.900;2023-01-31T12:55:29;100302.56;;;5.45;100.00
14232;BME280;7200;52.194;9.900;2023-01-31T13:00:57;100277.78;;;5.15;100.00
14232;BME280;7200;52.194;9.900;2023-01-31T13:06:17;100320.22;;;5.31;100.00
14232;BME280;7200;52.194;9.900;2023-01-31T13:08:54;100338.50;;;5.34;100.00
14232;BME280;7200;52.194;9.900;2023-01-31T13:11:29;100324.81;;;5.18;100.00
14232;BME280;7200;52.194;9.900;2023-01-31T13:14:01;100335.28;;;5.17;100.00
14232;BME280;7200;52.194;9.900;2023-01-31T13:16:30;100351.00;;;5.17;100.00
14232;BME280;7200;52.194;9.900;2023-01-31T13:19:01;100344.97;;;5.10;100.00
14232;BME280;7200;52.194;9.900;2023-01-31T13:21:36;100353.84;;;5.00;100.00
14232;BME280;7200;52.194;9.900;2023-01-31T13:24:11;100371.25;;;5.02;100.00
14232;BME280;7200;52.194;9.900;2023-01-31T13:26:43;100372.03;;;5.09;100.00
14232;BME280;7200;52.194;9.900;2023-01-31T13:29:30;100362.53;;;5.02;100.00
14232;BME280;7200;52.194;9.900;2023-01-31T13:32:19;100384.25;;;5.07;100.00
14232;BME280;7200;52.194;9.900;2023-01-31T13:34:56;100377.31;;;5.04;100.00
14232;BME280;7200;52.194;9.900;2023-01-31T13:37:23;100379.97;;;5.03;100.00
14232;BME280;7200;52.194;9.900;2023-01-31T13:39:54;100390.22;;;5.17;100.00
14232;BME280;7200;52.194;9.900;2023-01-31T13:42:22;100394.50;;;5.21;100.00
14232;BME280;7200;52.194;9.900;2023-01-31T13:44:47;100386.56;;;5.27;100.00
14232;BME280;7200;52.194;9.900;2023-01-31T13:47:19;100390.09;;;5.24;100.00
14232;BME280;7200;52.194;9.900;2023-01-31T13:50:28;100384.88;;;5.23;100.00
14232;BME280;7200;52.194;9.900;2023-01-31T13:52:55;100379.75;;;5.18;100.00
14232;BME280;7200;52.194;9.900;2023-01-31T13:55:38;100397.09;;;5.22;100.00
14232;BME280;7200;52.194;9.900;2023-01-31T13:58:07;100375.13;;;5.33;100.00
14232;BME280;7200;52.194;9.900;2023-01-31T14:00:41;100363.94;;;5.26;100.00
14232;BME280;7200;52.194;9.900;2023-01-31T14:03:13;100383.00;;;5.31;100.00
14232;BME280;7200;52.194;9.900;2023-01-31T14:10:52;100369.56;;;5.56;100.00
14232;BME280;7200;52.194;9.900;2023-01-31T14:13:23;100368.88;;;5.44;100.00
14232;BME280;7200;52.194;9.900;2023-01-31T14:15:51;100358.19;;;5.57;100.00
14232;BME280;7200;52.194;9.900;2023-01-31T14:18:34;100358.91;;;5.65;100.00
14232;BME280;7200;52.194;9.900;2023-01-31T14:21:42;100343.16;;;5.68;100.00
14232;BME280;7200;52.194;9.900;2023-01-31T14:24:18;100359.69;;;5.70;100.00
14232;BME280;7200;52.194;9.900;2023-01-31T14:29:15;100337.72;;;5.80;100.00
14232;BME280;7200;52.194;9.900;2023-01-31T14:31:45;100329.91;;;5.77;100.00
14232;BME280;7200;52.194;9.900;2023-01-31T14:34:18;100312.38;;;5.82;100.00
14232;BME280;7200;52.194;9.900;2023-01-31T14:36:55;100312.28;;;5.85;100.00
14232;BME280;7200;52.194;9.900;2023-01-31T14:46:00;100283.72;;;5.75;100.00
14232;BME280;7200;52.194;9.900;2023-01-31T14:55:07;100286.84;;;5.94;100.00